Time,TemperatureF,DewpointF,PressureIn,WindDirection,WindDirectionDegrees,WindSpeedMPH,WindSpeedGustMPH,Humidity,HourlyPrecipIn,Conditions,Clouds,dailyrainin,SoftwareType,DateUTC
2013-02-24 00:04:00,11.4,4.7,29.51,North,5,0.0,0.0,74,0.00,,---,0.00,VWS V14.01,2013-02-24 09:04:00,
2013-02-24 00:09:00,11.0,4.3,29.51,North,5,0.0,0.0,74,0.00,,---,0.00,VWS V14.01,2013-02-24 09:09:00,
2013-02-24 00:14:00,10.6,4.2,29.51,North,5,0.0,0.0,75,0.00,,---,0.00,VWS V14.01,2013-02-24 09:14:00,
2013-02-24 00:19:00,10.2,4.2,29.52,North,5,0.0,0.0,76,0.00,,---,0.00,VWS V14.01,2013-02-24 09:19:00,
2013-02-24 00:24:00,10.0,4.0,29.52,North,5,0.0,1.0,76,0.00,,---,0.00,VWS V14.01,2013-02-24 09:24:00,
2013-02-24 00:29:00,10.2,3.9,29.52,North,5,0.0,1.0,75,0.00,,---,0.00,VWS V14.01,2013-02-24 09:29:00,
2013-02-24 00:34:00,10.4,3.8,29.52,North,5,1.0,1.0,74,0.00,,---,0.00,VWS V14.01,2013-02-24 09:34:00,
2013-02-24 00:39:00,10.5,3.9,29.52,North,5,0.0,1.0,74,0.00,,---,0.00,VWS V14.01,2013-02-24 09:39:00,
2013-02-24 00:44:00,10.7,4.1,29.52,North,5,0.0,1.0,74,0.00,,---,0.00,VWS V14.01,2013-02-24 09:44:00,
2013-02-24 00:49:00,10.9,4.2,29.52,North,5,1.0,1.0,74,0.00,,---,0.00,VWS V14.01,2013-02-24 09:49:00,
2013-02-24 00:54:00,11.0,4.3,29.52,North,5,1.0,2.0,74,0.00,,---,0.00,VWS V14.01,2013-02-24 09:54:00,
2013-02-24 00:59:00,11.5,5.1,29.52,North,5,1.0,2.0,75,0.00,,---,0.00,VWS V14.01,2013-02-24 09:59:00,
2013-02-24 01:04:00,12.0,5.3,29.52,North,5,0.0,1.0,74,0.00,,---,0.00,VWS V14.01,2013-02-24 10:04:00,
2013-02-24 01:09:00,12.4,5.4,29.52,North,5,0.0,1.0,73,0.00,,---,0.00,VWS V14.01,2013-02-24 10:09:00,
2013-02-24 01:14:00,12.5,5.2,29.52,North,5,0.0,1.0,72,0.00,,---,0.00,VWS V14.01,2013-02-24 10:14:00,
2013-02-24 01:19:00,12.3,5.3,29.52,North,5,0.0,1.0,73,0.00,,---,0.00,VWS V14.01,2013-02-24 10:19:00,
2013-02-24 01:24:00,12.2,5.2,29.53,North,5,0.0,1.0,73,0.00,,---,0.00,VWS V14.01,2013-02-24 10:24:00,
2013-02-24 01:29:00,12.1,5.1,29.52,North,5,1.0,3.0,73,0.00,,---,0.00,VWS V14.01,2013-02-24 10:29:00,
2013-02-24 01:34:00,12.4,5.7,29.53,North,5,1.0,2.0,74,0.00,,---,0.00,VWS V14.01,2013-02-24 10:34:00,
2013-02-24 01:39:00,12.6,5.9,29.53,North,5,0.0,2.0,74,0.00,,---,0.00,VWS V14.01,2013-02-24 10:39:00,
2013-02-24 01:44:00,12.6,5.9,29.53,North,5,0.0,2.0,74,0.00,,---,0.00,VWS V14.01,2013-02-24 10:44:00,
2013-02-24 01:49:00,11.9,4.9,29.53,North,5,1.0,2.0,73,0.00,,---,0.00,VWS V14.01,2013-02-24 10:49:00,
2013-02-24 01:54:00,10.8,4.4,29.53,North,5,0.0,2.0,75,0.00,,---,0.00,VWS V14.01,2013-02-24 10:54:00,
2013-02-24 01:59:00,10.7,4.3,29.53,North,5,0.0,2.0,75,0.00,,---,0.00,VWS V14.01,2013-02-24 10:59:00,
2013-02-24 02:04:00,10.6,4.5,29.54,North,5,0.0,1.0,76,0.00,,---,0.00,VWS V14.01,2013-02-24 11:04:00,
2013-02-24 02:09:00,9.4,1.9,29.54,North,5,0.0,1.0,71,0.00,,---,0.00,VWS V14.01,2013-02-24 11:09:00,
2013-02-24 02:14:00,8.1,1.0,29.54,North,5,0.0,1.0,72,0.00,,---,0.00,VWS V14.01,2013-02-24 11:14:00,
2013-02-24 02:19:00,7.3,0.2,29.54,North,5,0.0,1.0,72,0.00,,---,0.00,VWS V14.01,2013-02-24 11:19:00,
2013-02-24 02:24:00,6.8,0.0,29.54,North,5,1.0,1.0,73,0.00,,---,0.00,VWS V14.01,2013-02-24 11:24:00,
2013-02-24 02:29:00,6.4,-0.1,29.55,North,5,0.0,1.0,74,0.00,,---,0.00,VWS V14.01,2013-02-24 11:29:00,
2013-02-24 02:34:00,6.2,0.0,29.55,North,5,0.0,0.0,75,0.00,,---,0.00,VWS V14.01,2013-02-24 11:34:00,
2013-02-24 02:39:00,6.3,1.2,29.55,North,5,0.0,1.0,79,0.00,,---,0.00,VWS V14.01,2013-02-24 11:39:00,
2013-02-24 02:44:00,6.2,0.3,29.55,North,5,0.0,1.0,76,0.00,,---,0.00,VWS V14.01,2013-02-24 11:44:00,
2013-02-24 02:49:00,6.0,0.1,29.55,North,5,0.0,1.0,76,0.00,,---,0.00,VWS V14.01,2013-02-24 11:49:00,
2013-02-24 02:54:00,5.9,0.0,29.55,North,5,0.0,1.0,76,0.00,,---,0.00,VWS V14.01,2013-02-24 11:54:00,
2013-02-24 02:59:00,5.9,0.3,29.55,North,5,0.0,1.0,77,0.00,,---,0.00,VWS V14.01,2013-02-24 11:59:00,
2013-02-24 03:04:00,6.8,2.5,29.55,North,5,0.0,1.0,82,0.00,,---,0.00,VWS V14.01,2013-02-24 12:04:00,
2013-02-24 03:09:00,7.4,3.1,29.55,North,5,0.0,1.0,82,0.00,,---,0.00,VWS V14.01,2013-02-24 12:09:00,
2013-02-24 03:14:00,7.8,3.2,29.55,North,5,0.0,1.0,81,0.00,,---,0.00,VWS V14.01,2013-02-24 12:14:00,
2013-02-24 03:19:00,8.2,3.6,29.55,North,5,1.0,1.0,81,0.00,,---,0.00,VWS V14.01,2013-02-24 12:19:00,
2013-02-24 03:24:00,9.1,4.5,29.55,North,5,0.0,2.0,81,0.00,,---,0.00,VWS V14.01,2013-02-24 12:24:00,
2013-02-24 03:29:00,10.0,5.1,29.55,North,5,0.0,2.0,80,0.00,,---,0.00,VWS V14.01,2013-02-24 12:29:00,
2013-02-24 03:34:00,10.7,5.2,29.55,North,5,0.0,2.0,78,0.00,,---,0.00,VWS V14.01,2013-02-24 12:34:00,
2013-02-24 03:39:00,10.8,5.0,29.55,North,5,0.0,2.0,77,0.00,,---,0.00,VWS V14.01,2013-02-24 12:39:00,
2013-02-24 03:44:00,10.3,4.0,29.55,North,5,0.0,2.0,75,0.00,,---,0.00,VWS V14.01,2013-02-24 12:44:00,
2013-02-24 03:49:00,9.6,3.8,29.55,North,5,0.0,2.0,77,0.00,,---,0.00,VWS V14.01,2013-02-24 12:49:00,
2013-02-24 03:54:00,9.7,4.0,29.55,WNW,295,1.0,3.0,77,0.00,,---,0.00,VWS V14.01,2013-02-24 12:54:00,
2013-02-24 03:59:00,8.8,1.3,29.55,WNW,295,0.0,3.0,71,0.00,,---,0.00,VWS V14.01,2013-02-24 12:59:00,
2013-02-24 04:04:00,7.8,0.7,29.55,WNW,295,0.0,0.0,72,0.00,,---,0.00,VWS V14.01,2013-02-24 13:04:00,
2013-02-24 04:09:00,7.0,0.2,29.55,WNW,295,0.0,1.0,73,0.00,,---,0.00,VWS V14.01,2013-02-24 13:09:00,
2013-02-24 04:14:00,6.9,1.5,29.55,WNW,295,0.0,1.0,78,0.00,,---,0.00,VWS V14.01,2013-02-24 13:14:00,
2013-02-24 04:19:00,7.3,2.4,29.55,WNW,295,0.0,1.0,80,0.00,,---,0.00,VWS V14.01,2013-02-24 13:19:00,
2013-02-24 04:24:00,7.7,2.0,29.55,WNW,295,1.0,2.0,77,0.00,,---,0.00,VWS V14.01,2013-02-24 13:24:00,
2013-02-24 04:29:00,7.7,2.3,29.56,WNW,295,0.0,2.0,78,0.00,,---,0.00,VWS V14.01,2013-02-24 13:29:00,
2013-02-24 04:34:00,8.0,2.8,29.56,WNW,295,2.0,2.0,79,0.00,,---,0.00,VWS V14.01,2013-02-24 13:34:00,
2013-02-24 04:39:00,7.9,2.2,29.56,WNW,295,0.0,2.0,77,0.00,,---,0.00,VWS V14.01,2013-02-24 13:39:00,
2013-02-24 04:44:00,7.6,1.9,29.56,WNW,295,0.0,2.0,77,0.00,,---,0.00,VWS V14.01,2013-02-24 13:44:00,
2013-02-24 04:49:00,7.3,1.6,29.56,WNW,295,0.0,2.0,77,0.00,,---,0.00,VWS V14.01,2013-02-24 13:49:00,
2013-02-24 04:54:00,6.9,1.2,29.56,WNW,295,0.0,2.0,77,0.00,,---,0.00,VWS V14.01,2013-02-24 13:54:00,
2013-02-24 04:59:00,6.5,0.8,29.56,WNW,295,0.0,2.0,77,0.00,,---,0.00,VWS V14.01,2013-02-24 13:59:00,
2013-02-24 05:04:00,6.3,0.9,29.56,North,355,3.0,5.0,78,0.00,,---,0.00,VWS V14.01,2013-02-24 14:04:00,
2013-02-24 05:09:00,6.2,1.1,29.57,North,360,0.0,5.0,79,0.00,,---,0.00,VWS V14.01,2013-02-24 14:09:00,
2013-02-24 05:14:00,6.1,1.0,29.57,North,360,0.0,5.0,79,0.00,,---,0.00,VWS V14.01,2013-02-24 14:14:00,
2013-02-24 05:19:00,6.4,1.8,29.57,North,360,1.0,5.0,81,0.00,,---,0.00,VWS V14.01,2013-02-24 14:19:00,
2013-02-24 05:24:00,6.7,2.1,29.57,North,360,0.0,5.0,81,0.00,,---,0.00,VWS V14.01,2013-02-24 14:24:00,
2013-02-24 05:29:00,6.9,2.3,29.57,North,360,1.0,5.0,81,0.00,,---,0.00,VWS V14.01,2013-02-24 14:29:00,
2013-02-24 05:34:00,7.2,2.6,29.57,North,360,0.0,0.0,81,0.00,,---,0.00,VWS V14.01,2013-02-24 14:34:00,
2013-02-24 05:39:00,7.4,2.8,29.58,North,360,0.0,1.0,81,0.00,,---,0.00,VWS V14.01,2013-02-24 14:39:00,
2013-02-24 05:44:00,7.6,3.0,29.58,North,360,1.0,2.0,81,0.00,,---,0.00,VWS V14.01,2013-02-24 14:44:00,
2013-02-24 05:49:00,6.9,1.8,29.58,North,360,0.0,2.0,79,0.00,,---,0.00,VWS V14.01,2013-02-24 14:49:00,
2013-02-24 05:54:00,6.2,0.3,29.58,North,360,0.0,2.0,76,0.00,,---,0.00,VWS V14.01,2013-02-24 14:54:00,
2013-02-24 05:59:00,5.6,-0.3,29.58,North,360,0.0,2.0,76,0.00,,---,0.00,VWS V14.01,2013-02-24 14:59:00,
2013-02-24 06:04:00,5.1,-0.8,29.59,North,360,0.0,0.0,76,0.00,,---,0.00,VWS V14.01,2013-02-24 15:04:00,
2013-02-24 06:09:00,4.9,-0.4,29.59,North,360,0.0,0.0,78,0.00,,---,0.00,VWS V14.01,2013-02-24 15:09:00,
2013-02-24 06:14:00,4.8,-0.5,29.59,North,360,0.0,2.0,78,0.00,,---,0.00,VWS V14.01,2013-02-24 15:14:00,
2013-02-24 06:19:00,4.7,-0.6,29.59,North,360,0.0,2.0,78,0.00,,---,0.00,VWS V14.01,2013-02-24 15:19:00,
2013-02-24 06:24:00,4.7,-0.4,29.59,North,360,0.0,2.0,79,0.00,,---,0.00,VWS V14.01,2013-02-24 15:24:00,
2013-02-24 06:29:00,4.7,-0.6,29.59,North,360,0.0,2.0,78,0.00,,---,0.00,VWS V14.01,2013-02-24 15:29:00,
2013-02-24 06:34:00,4.6,-0.7,29.59,North,360,0.0,0.0,78,0.00,,---,0.00,VWS V14.01,2013-02-24 15:34:00,
2013-02-24 06:39:00,4.2,-1.1,29.59,North,360,2.0,2.0,78,0.00,,---,0.00,VWS V14.01,2013-02-24 15:39:00,
2013-02-24 06:44:00,4.0,-1.0,29.60,North,360,0.0,2.0,79,0.00,,---,0.00,VWS V14.01,2013-02-24 15:44:00,
2013-02-24 06:49:00,4.0,-1.0,29.60,North,360,0.0,2.0,79,0.00,,---,0.00,VWS V14.01,2013-02-24 15:49:00,
2013-02-24 06:54:00,3.7,-1.3,29.60,North,360,0.0,2.0,79,0.00,,---,0.00,VWS V14.01,2013-02-24 15:54:00,
2013-02-24 06:59:00,4.1,-0.7,29.60,North,360,0.0,2.0,80,0.00,,---,0.00,VWS V14.01,2013-02-24 15:59:00,
2013-02-24 07:04:00,4.5,-0.3,29.60,North,360,1.0,1.0,80,0.00,,---,0.00,VWS V14.01,2013-02-24 16:04:00,
2013-02-24 07:09:00,4.6,0.1,29.60,North,360,0.0,2.0,81,0.00,,---,0.00,VWS V14.01,2013-02-24 16:09:00,
2013-02-24 07:14:00,4.9,0.9,29.60,North,360,0.0,2.0,83,0.00,,---,0.00,VWS V14.01,2013-02-24 16:14:00,
2013-02-24 07:19:00,4.9,0.9,29.61,North,360,0.0,2.0,83,0.00,,---,0.00,VWS V14.01,2013-02-24 16:19:00,
2013-02-24 07:24:00,4.9,0.9,29.61,North,360,0.0,2.0,83,0.00,,---,0.00,VWS V14.01,2013-02-24 16:24:00,
2013-02-24 07:29:00,4.9,0.9,29.61,North,360,0.0,2.0,83,0.00,,---,0.00,VWS V14.01,2013-02-24 16:29:00,
2013-02-24 07:34:00,4.9,0.9,29.61,North,360,0.0,0.0,83,0.00,,---,0.00,VWS V14.01,2013-02-24 16:34:00,
2013-02-24 07:39:00,4.9,0.9,29.61,North,360,0.0,0.0,83,0.00,,---,0.00,VWS V14.01,2013-02-24 16:39:00,
2013-02-24 07:44:00,4.9,0.9,29.62,North,360,0.0,0.0,83,0.00,,---,0.00,VWS V14.01,2013-02-24 16:44:00,
2013-02-24 07:49:00,4.9,0.9,29.62,North,360,0.0,0.0,83,0.00,,---,0.00,VWS V14.01,2013-02-24 16:49:00,
2013-02-24 07:54:00,4.9,0.9,29.62,North,360,0.0,0.0,83,0.00,,---,0.00,VWS V14.01,2013-02-24 16:54:00,
2013-02-24 07:59:00,4.9,0.9,29.62,North,360,0.0,0.0,83,0.00,,---,0.00,VWS V14.01,2013-02-24 16:59:00,
2013-02-24 08:04:00,4.9,0.9,29.62,North,360,0.0,0.0,83,0.00,,---,0.00,VWS V14.01,2013-02-24 17:04:00,
2013-02-24 08:09:00,4.9,0.9,29.62,North,360,0.0,0.0,83,0.00,,---,0.00,VWS V14.01,2013-02-24 17:09:00,
2013-02-24 08:14:00,4.9,0.9,29.62,North,360,0.0,0.0,83,0.00,,---,0.00,VWS V14.01,2013-02-24 17:14:00,
2013-02-24 08:19:00,4.9,0.9,29.62,North,360,0.0,0.0,83,0.00,,---,0.00,VWS V14.01,2013-02-24 17:19:00,
2013-02-24 08:24:00,4.9,0.9,29.62,North,360,0.0,0.0,83,0.00,,---,0.00,VWS V14.01,2013-02-24 17:24:00,
2013-02-24 08:29:00,4.9,0.9,29.62,North,360,0.0,0.0,83,0.00,,---,0.00,VWS V14.01,2013-02-24 17:29:00,
2013-02-24 08:34:00,4.9,0.9,29.62,North,360,0.0,0.0,83,0.00,,---,0.00,VWS V14.01,2013-02-24 17:34:00,
2013-02-24 08:39:00,4.9,0.9,29.62,North,360,0.0,0.0,83,0.00,,---,0.00,VWS V14.01,2013-02-24 17:39:00,
2013-02-24 08:44:00,4.9,0.9,29.62,North,360,0.0,0.0,83,0.00,,---,0.00,VWS V14.01,2013-02-24 17:44:00,
2013-02-24 08:49:00,3.1,-0.9,29.62,East,81,0.0,1.0,83,0.00,,---,0.00,VWS V14.01,2013-02-24 17:49:00,
2013-02-24 08:54:00,3.3,-0.4,29.63,East,81,0.0,1.0,84,0.00,,---,0.00,VWS V14.01,2013-02-24 17:54:00,
2013-02-24 08:59:00,3.6,1.8,29.63,East,80,2.0,3.0,92,0.00,,---,0.00,VWS V14.01,2013-02-24 17:59:00,
2013-02-24 09:04:00,3.6,-0.6,29.63,East,87,0.0,3.0,82,0.00,,---,0.00,VWS V14.01,2013-02-24 18:04:00,
2013-02-24 09:09:00,3.6,-0.6,29.63,East,87,1.0,3.0,82,0.00,,---,0.00,VWS V14.01,2013-02-24 18:09:00,
2013-02-24 09:14:00,3.7,-0.8,29.64,East,87,0.0,3.0,81,0.00,,---,0.00,VWS V14.01,2013-02-24 18:14:00,
2013-02-24 09:19:00,3.6,-1.2,29.64,East,87,0.0,3.0,80,0.00,,---,0.00,VWS V14.01,2013-02-24 18:19:00,
2013-02-24 09:24:00,3.6,-1.2,29.64,East,87,1.0,3.0,80,0.00,,---,0.00,VWS V14.01,2013-02-24 18:24:00,
2013-02-24 09:29:00,3.5,-1.5,29.64,East,87,1.0,3.0,79,0.00,,---,0.00,VWS V14.01,2013-02-24 18:29:00,
2013-02-24 09:34:00,3.2,-1.8,29.64,East,87,0.0,1.0,79,0.00,,---,0.00,VWS V14.01,2013-02-24 18:34:00,
2013-02-24 09:38:00,3.1,-1.9,29.65,East,87,0.0,2.0,79,0.00,,---,0.00,VWS V14.01,2013-02-24 18:38:00,
2013-02-24 09:43:00,3.0,-2.0,29.65,East,87,1.0,2.0,79,0.00,,---,0.00,VWS V14.01,2013-02-24 18:43:00,
2013-02-24 09:48:00,2.7,-2.6,29.65,East,87,1.0,2.0,78,0.00,,---,0.00,VWS V14.01,2013-02-24 18:48:00,
2013-02-24 09:53:00,2.5,-2.8,29.65,East,87,1.0,2.0,78,0.00,,---,0.00,VWS V14.01,2013-02-24 18:53:00,
2013-02-24 09:58:00,2.6,-2.7,29.65,East,87,0.0,2.0,78,0.00,,---,0.00,VWS V14.01,2013-02-24 18:58:00,
2013-02-24 10:03:00,2.8,-2.2,29.65,East,87,0.0,1.0,79,0.00,,---,0.00,VWS V14.01,2013-02-24 19:03:00,
2013-02-24 10:08:00,3.4,-1.1,29.66,East,87,0.0,2.0,81,0.00,,---,0.00,VWS V14.01,2013-02-24 19:08:00,
2013-02-24 10:13:00,3.7,-1.9,29.66,East,87,0.0,2.0,77,0.00,,---,0.00,VWS V14.01,2013-02-24 19:13:00,
2013-02-24 10:18:00,3.7,-2.2,29.66,East,87,0.0,2.0,76,0.00,,---,0.00,VWS V14.01,2013-02-24 19:18:00,
2013-02-24 10:23:00,4.0,-1.6,29.66,East,87,1.0,2.0,77,0.00,,---,0.00,VWS V14.01,2013-02-24 19:23:00,
2013-02-24 10:28:00,4.3,-1.3,29.67,East,87,1.0,2.0,77,0.00,,---,0.00,VWS V14.01,2013-02-24 19:28:00,
2013-02-24 10:33:00,4.3,-1.3,29.67,East,87,1.0,1.0,77,0.00,,---,0.00,VWS V14.01,2013-02-24 19:33:00,
2013-02-24 10:38:00,4.1,-2.6,29.67,East,87,0.0,1.0,73,0.00,,---,0.00,VWS V14.01,2013-02-24 19:38:00,
2013-02-24 10:43:00,4.4,-2.0,29.67,East,87,0.0,2.0,74,0.00,,---,0.00,VWS V14.01,2013-02-24 19:43:00,
2013-02-24 10:48:00,4.7,-1.5,29.67,East,87,0.0,2.0,75,0.00,,---,0.00,VWS V14.01,2013-02-24 19:48:00,
2013-02-24 10:53:00,5.0,-1.5,29.67,East,87,0.0,2.0,74,0.00,,---,0.00,VWS V14.01,2013-02-24 19:53:00,
2013-02-24 10:58:00,5.0,-2.0,29.67,East,87,0.0,2.0,72,0.00,,---,0.00,VWS V14.01,2013-02-24 19:58:00,
2013-02-24 11:03:00,4.6,-2.4,29.68,East,87,1.0,1.0,72,0.00,,---,0.00,VWS V14.01,2013-02-24 20:03:00,
2013-02-24 11:08:00,4.4,-2.6,29.68,East,87,0.0,2.0,72,0.00,,---,0.00,VWS V14.01,2013-02-24 20:08:00,
2013-02-24 11:13:00,4.5,-2.2,29.68,East,87,0.0,2.0,73,0.00,,---,0.00,VWS V14.01,2013-02-24 20:13:00,
2013-02-24 11:18:00,4.7,-2.6,29.68,East,87,0.0,2.0,71,0.00,,---,0.00,VWS V14.01,2013-02-24 20:18:00,
2013-02-24 11:23:00,5.3,-1.5,29.69,East,87,0.0,2.0,73,0.00,,---,0.00,VWS V14.01,2013-02-24 20:23:00,
2013-02-24 11:28:00,6.2,-1.2,29.69,East,87,1.0,2.0,71,0.00,,---,0.00,VWS V14.01,2013-02-24 20:28:00,
2013-02-24 11:33:00,6.4,-1.9,29.69,East,87,1.0,2.0,68,0.00,,---,0.00,VWS V14.01,2013-02-24 20:33:00,
2013-02-24 11:38:00,6.5,-2.1,29.69,East,87,0.0,2.0,67,0.00,,---,0.00,VWS V14.01,2013-02-24 20:38:00,
2013-02-24 11:43:00,6.7,-2.2,29.69,East,87,1.0,2.0,66,0.00,,---,0.00,VWS V14.01,2013-02-24 20:43:00,
2013-02-24 11:48:00,7.3,-0.7,29.69,East,87,1.0,2.0,69,0.00,,---,0.00,VWS V14.01,2013-02-24 20:48:00,
2013-02-24 11:53:00,8.2,0.4,29.69,East,87,1.0,3.0,70,0.00,,---,0.00,VWS V14.01,2013-02-24 20:53:00,
2013-02-24 11:58:00,8.8,0.4,29.69,East,88,1.0,3.0,68,0.00,,---,0.00,VWS V14.01,2013-02-24 20:58:00,
2013-02-24 12:03:00,9.2,0.8,29.70,East,88,1.0,2.0,68,0.00,,---,0.00,VWS V14.01,2013-02-24 21:03:00,
2013-02-24 12:08:00,9.7,1.0,29.70,East,88,1.0,2.0,67,0.00,,---,0.00,VWS V14.01,2013-02-24 21:08:00,
2013-02-24 12:13:00,9.2,-1.9,29.70,East,88,0.0,3.0,60,0.00,,---,0.00,VWS V14.01,2013-02-24 21:13:00,
2013-02-24 12:18:00,7.8,-2.8,29.70,East,88,0.0,3.0,61,0.00,,---,0.00,VWS V14.01,2013-02-24 21:18:00,
2013-02-24 12:23:00,6.7,-3.5,29.71,East,88,0.0,3.0,62,0.00,,---,0.00,VWS V14.01,2013-02-24 21:23:00,
2013-02-24 12:28:00,6.5,-2.1,29.70,East,88,0.0,3.0,67,0.00,,---,0.00,VWS V14.01,2013-02-24 21:28:00,
2013-02-24 12:33:00,6.6,-2.7,29.70,East,88,0.0,0.0,65,0.00,,---,0.00,VWS V14.01,2013-02-24 21:33:00,
2013-02-24 12:38:00,6.8,-2.5,29.70,East,88,0.0,0.0,65,0.00,,---,0.00,VWS V14.01,2013-02-24 21:38:00,
2013-02-24 12:43:00,7.0,-2.0,29.71,East,88,0.0,1.0,66,0.00,,---,0.00,VWS V14.01,2013-02-24 21:43:00,
2013-02-24 12:48:00,7.1,-0.9,29.71,East,88,0.0,1.0,69,0.00,,---,0.00,VWS V14.01,2013-02-24 21:48:00,
2013-02-24 12:53:00,7.4,-0.3,29.71,East,88,0.0,1.0,70,0.00,,---,0.00,VWS V14.01,2013-02-24 21:53:00,
2013-02-24 12:58:00,7.7,0.9,29.71,East,88,0.0,1.0,73,0.00,,---,0.00,VWS V14.01,2013-02-24 21:58:00,
2013-02-24 13:03:00,8.0,0.9,29.71,East,88,0.0,0.0,72,0.00,,---,0.00,VWS V14.01,2013-02-24 22:03:00,
2013-02-24 13:08:00,8.4,1.5,29.71,East,88,0.0,0.0,73,0.00,,---,0.00,VWS V14.01,2013-02-24 22:08:00,
2013-02-24 13:13:00,8.9,2.0,29.71,East,88,0.0,0.0,73,0.00,,---,0.00,VWS V14.01,2013-02-24 22:13:00,
2013-02-24 13:18:00,9.1,1.3,29.71,East,88,0.0,1.0,70,0.00,,---,0.00,VWS V14.01,2013-02-24 22:18:00,
2013-02-24 13:23:00,9.2,1.7,29.71,East,88,0.0,1.0,71,0.00,,---,0.00,VWS V14.01,2013-02-24 22:23:00,
2013-02-24 13:28:00,9.2,1.4,29.71,East,88,1.0,2.0,70,0.00,,---,0.00,VWS V14.01,2013-02-24 22:28:00,
2013-02-24 13:33:00,8.8,1.0,29.71,East,88,0.0,2.0,70,0.00,,---,0.00,VWS V14.01,2013-02-24 22:33:00,
2013-02-24 13:38:00,8.6,1.4,29.71,East,88,1.0,2.0,72,0.00,,---,0.00,VWS V14.01,2013-02-24 22:38:00,
2013-02-24 13:43:00,8.5,1.6,29.71,East,88,1.0,2.0,73,0.00,,---,0.00,VWS V14.01,2013-02-24 22:43:00,
2013-02-24 13:48:00,8.7,1.8,29.71,East,88,0.0,2.0,73,0.00,,---,0.00,VWS V14.01,2013-02-24 22:48:00,
2013-02-24 13:53:00,9.0,2.1,29.71,East,88,0.0,2.0,73,0.00,,---,0.00,VWS V14.01,2013-02-24 22:53:00,
2013-02-24 13:58:00,9.4,2.8,29.72,East,88,1.0,2.0,74,0.00,,---,0.00,VWS V14.01,2013-02-24 22:58:00,
2013-02-24 14:03:00,9.7,2.8,29.72,North,5,0.0,4.0,73,0.00,,---,0.00,VWS V14.01,2013-02-24 23:03:00,
2013-02-24 14:08:00,10.3,3.4,29.72,North,5,1.0,4.0,73,0.00,,---,0.00,VWS V14.01,2013-02-24 23:08:00,
2013-02-24 14:13:00,11.4,4.1,29.72,North,5,1.0,4.0,72,0.00,,---,0.00,VWS V14.01,2013-02-24 23:13:00,
2013-02-24 14:18:00,12.5,4.6,29.72,ESE,109,1.0,4.0,70,0.00,,---,0.00,VWS V14.01,2013-02-24 23:18:00,
2013-02-24 14:23:00,13.0,4.4,29.72,ESE,114,4.0,4.0,68,0.00,,---,0.00,VWS V14.01,2013-02-24 23:23:00,
2013-02-24 14:28:00,13.0,3.1,29.72,ESE,120,1.0,4.0,64,0.00,,---,0.00,VWS V14.01,2013-02-24 23:28:00,
2013-02-24 14:33:00,12.7,2.5,29.72,ESE,120,0.0,1.0,63,0.00,,---,0.00,VWS V14.01,2013-02-24 23:33:00,
2013-02-24 14:38:00,12.4,1.2,29.73,ESE,120,0.0,4.0,60,0.00,,---,0.00,VWS V14.01,2013-02-24 23:38:00,
2013-02-24 14:43:00,12.7,1.5,29.73,ESE,120,0.0,4.0,60,0.00,,---,0.00,VWS V14.01,2013-02-24 23:43:00,
2013-02-24 14:48:00,13.3,2.7,29.73,ESE,120,0.0,4.0,62,0.00,,---,0.00,VWS V14.01,2013-02-24 23:48:00,
2013-02-24 14:53:00,14.3,3.3,29.73,ESE,120,0.0,4.0,61,0.00,,---,0.00,VWS V14.01,2013-02-24 23:53:00,
2013-02-24 14:58:00,15.0,3.3,29.73,ESE,120,0.0,4.0,59,0.00,,---,0.00,VWS V14.01,2013-02-24 23:58:00,
2013-02-24 15:03:00,15.2,2.7,29.73,ESE,120,0.0,2.0,57,0.00,,---,0.00,VWS V14.01,2013-02-25 00:03:00,
2013-02-24 15:08:00,15.2,3.8,29.73,ESE,120,0.0,2.0,60,0.00,,---,0.00,VWS V14.01,2013-02-25 00:08:00,
2013-02-24 15:13:00,15.1,2.2,29.73,ESE,120,0.0,2.0,56,0.00,,---,0.00,VWS V14.01,2013-02-25 00:13:00,
2013-02-24 15:18:00,14.9,2.0,29.73,ESE,120,0.0,2.0,56,0.00,,---,0.00,VWS V14.01,2013-02-25 00:18:00,
2013-02-24 15:23:00,14.8,3.4,29.73,ESE,120,0.0,2.0,60,0.00,,---,0.00,VWS V14.01,2013-02-25 00:23:00,
2013-02-24 15:28:00,14.3,3.3,29.73,ESE,120,0.0,2.0,61,0.00,,---,0.00,VWS V14.01,2013-02-25 00:28:00,
2013-02-24 15:33:00,14.0,3.4,29.74,ESE,120,0.0,0.0,62,0.00,,---,0.00,VWS V14.01,2013-02-25 00:33:00,
2013-02-24 15:38:00,13.9,3.6,29.74,ESE,120,2.0,4.0,63,0.00,,---,0.00,VWS V14.01,2013-02-25 00:38:00,
2013-02-24 15:43:00,13.4,3.2,29.74,NNW,331,1.0,5.0,63,0.00,,---,0.00,VWS V14.01,2013-02-25 00:43:00,
2013-02-24 15:48:00,12.5,3.0,29.74,North,350,1.0,5.0,65,0.00,,---,0.00,VWS V14.01,2013-02-25 00:48:00,
2013-02-24 15:53:00,12.1,2.9,29.74,North,9,1.0,5.0,66,0.00,,---,0.00,VWS V14.01,2013-02-25 00:53:00,
2013-02-24 15:58:00,12.1,2.9,29.74,NNW,337,2.0,5.0,66,0.00,,---,0.00,VWS V14.01,2013-02-25 00:58:00,
2013-02-24 16:03:00,12.0,3.2,29.74,NNW,328,2.0,5.0,67,0.00,,---,0.00,VWS V14.01,2013-02-25 01:03:00,
2013-02-24 16:08:00,12.0,3.2,29.75,NW,323,1.0,5.0,67,0.00,,---,0.00,VWS V14.01,2013-02-25 01:08:00,
2013-02-24 16:13:00,12.2,3.7,29.75,North,5,0.0,5.0,68,0.00,,---,0.00,VWS V14.01,2013-02-25 01:13:00,
2013-02-24 16:18:00,12.3,3.5,29.75,NNW,340,2.0,5.0,67,0.00,,---,0.00,VWS V14.01,2013-02-25 01:18:00,
2013-02-24 16:23:00,12.3,3.5,29.75,North,360,1.0,5.0,67,0.00,,---,0.00,VWS V14.01,2013-02-25 01:23:00,
2013-02-24 16:28:00,12.3,3.5,29.75,NNE,15,2.0,6.0,67,0.00,,---,0.00,VWS V14.01,2013-02-25 01:28:00,
2013-02-24 16:33:00,12.3,3.8,29.75,NNE,24,3.0,4.0,68,0.00,,---,0.00,VWS V14.01,2013-02-25 01:33:00,
2013-02-24 16:38:00,12.2,3.7,29.75,North,5,1.0,4.0,68,0.00,,---,0.00,VWS V14.01,2013-02-25 01:38:00,
2013-02-24 16:43:00,12.1,3.6,29.75,North,360,2.0,4.0,68,0.00,,---,0.00,VWS V14.01,2013-02-25 01:43:00,
2013-02-24 16:48:00,12.1,3.9,29.75,North,360,1.0,4.0,69,0.00,,---,0.00,VWS V14.01,2013-02-25 01:48:00,
2013-02-24 16:53:00,12.1,3.9,29.75,North,5,3.0,5.0,69,0.00,,---,0.00,VWS V14.01,2013-02-25 01:53:00,
2013-02-24 16:57:00,12.2,4.0,29.75,North,5,1.0,5.0,69,0.00,,---,0.00,VWS V14.01,2013-02-25 01:57:00,
2013-02-24 17:02:00,12.5,4.3,29.75,NNW,348,1.0,2.0,69,0.00,,---,0.00,VWS V14.01,2013-02-25 02:02:00,
2013-02-24 17:07:00,12.5,4.3,29.75,North,355,1.0,3.0,69,0.00,,---,0.00,VWS V14.01,2013-02-25 02:07:00,
2013-02-24 17:12:00,12.6,5.0,29.75,North,355,0.0,3.0,71,0.00,,---,0.00,VWS V14.01,2013-02-25 02:12:00,
2013-02-24 17:17:00,12.8,5.2,29.76,North,355,0.0,3.0,71,0.00,,---,0.00,VWS V14.01,2013-02-25 02:17:00,
2013-02-24 17:22:00,12.7,4.5,29.76,North,355,0.0,3.0,69,0.00,,---,0.00,VWS V14.01,2013-02-25 02:22:00,
2013-02-24 17:27:00,12.5,4.6,29.76,North,355,0.0,3.0,70,0.00,,---,0.00,VWS V14.01,2013-02-25 02:27:00,
2013-02-24 17:32:00,12.0,4.4,29.76,North,355,0.0,0.0,71,0.00,,---,0.00,VWS V14.01,2013-02-25 02:32:00,
2013-02-24 17:37:00,11.3,4.1,29.76,North,355,1.0,2.0,72,0.00,,---,0.00,VWS V14.01,2013-02-25 02:37:00,
2013-02-24 17:42:00,11.0,3.8,29.76,North,355,0.0,2.0,72,0.00,,---,0.00,VWS V14.01,2013-02-25 02:42:00,
2013-02-24 17:47:00,11.0,3.8,29.76,North,355,0.0,2.0,72,0.00,,---,0.00,VWS V14.01,2013-02-25 02:47:00,
2013-02-24 17:52:00,11.0,3.8,29.77,North,355,0.0,2.0,72,0.00,,---,0.00,VWS V14.01,2013-02-25 02:52:00,
2013-02-24 17:57:00,10.3,2.8,29.77,North,355,0.0,2.0,71,0.00,,---,0.00,VWS V14.01,2013-02-25 02:57:00,
2013-02-24 18:02:00,9.5,2.3,29.77,North,355,0.0,0.0,72,0.00,,---,0.00,VWS V14.01,2013-02-25 03:02:00,
2013-02-24 18:07:00,9.1,3.4,29.77,North,355,0.0,1.0,77,0.00,,---,0.00,VWS V14.01,2013-02-25 03:07:00,
2013-02-24 18:12:00,9.1,2.5,29.77,North,355,0.0,1.0,74,0.00,,---,0.00,VWS V14.01,2013-02-25 03:12:00,
2013-02-24 18:17:00,8.9,2.3,29.77,North,355,0.0,1.0,74,0.00,,---,0.00,VWS V14.01,2013-02-25 03:17:00,
2013-02-24 18:22:00,9.0,3.0,29.78,North,355,0.0,2.0,76,0.00,,---,0.00,VWS V14.01,2013-02-25 03:22:00,
2013-02-24 18:27:00,10.1,4.6,29.78,North,355,0.0,2.0,78,0.00,,---,0.00,VWS V14.01,2013-02-25 03:27:00,
2013-02-24 18:32:00,11.0,4.3,29.78,North,355,0.0,0.0,74,0.00,,---,0.00,VWS V14.01,2013-02-25 03:32:00,
2013-02-24 18:37:00,11.8,6.0,29.78,North,355,0.0,1.0,77,0.00,,---,0.00,VWS V14.01,2013-02-25 03:37:00,
2013-02-24 18:42:00,12.2,4.9,29.78,North,355,0.0,1.0,72,0.00,,---,0.00,VWS V14.01,2013-02-25 03:42:00,
2013-02-24 18:47:00,12.5,5.2,29.78,North,355,0.0,1.0,72,0.00,,---,0.00,VWS V14.01,2013-02-25 03:47:00,
2013-02-24 18:52:00,12.4,4.2,29.78,North,355,0.0,1.0,69,0.00,,---,0.00,VWS V14.01,2013-02-25 03:52:00,
2013-02-24 18:57:00,12.4,4.5,29.78,North,355,0.0,1.0,70,0.00,,---,0.00,VWS V14.01,2013-02-25 03:57:00,
2013-02-24 19:02:00,12.3,4.4,29.78,North,355,0.0,0.0,70,0.00,,---,0.00,VWS V14.01,2013-02-25 04:02:00,
2013-02-24 19:07:00,11.9,4.0,29.79,North,355,0.0,0.0,70,0.00,,---,0.00,VWS V14.01,2013-02-25 04:07:00,
2013-02-24 19:12:00,11.0,3.2,29.79,North,355,0.0,0.0,70,0.00,,---,0.00,VWS V14.01,2013-02-25 04:12:00,
2013-02-24 19:17:00,10.5,3.0,29.79,North,355,0.0,0.0,71,0.00,,---,0.00,VWS V14.01,2013-02-25 04:17:00,
2013-02-24 19:22:00,10.3,3.1,29.79,North,355,1.0,2.0,72,0.00,,---,0.00,VWS V14.01,2013-02-25 04:22:00,
2013-02-24 19:27:00,10.4,3.8,29.79,North,355,0.0,2.0,74,0.00,,---,0.00,VWS V14.01,2013-02-25 04:27:00,
2013-02-24 19:32:00,10.7,4.3,29.79,North,355,1.0,1.0,75,0.00,,---,0.00,VWS V14.01,2013-02-25 04:32:00,
2013-02-24 19:37:00,10.6,2.8,29.79,North,355,0.0,2.0,70,0.00,,---,0.00,VWS V14.01,2013-02-25 04:37:00,
2013-02-24 19:42:00,10.8,2.6,29.79,North,355,1.0,2.0,69,0.00,,---,0.00,VWS V14.01,2013-02-25 04:42:00,
2013-02-24 19:47:00,11.0,2.5,29.80,North,355,0.0,2.0,68,0.00,,---,0.00,VWS V14.01,2013-02-25 04:47:00,
2013-02-24 19:52:00,11.2,2.7,29.80,North,355,0.0,2.0,68,0.00,,---,0.00,VWS V14.01,2013-02-25 04:52:00,
2013-02-24 19:57:00,11.3,3.4,29.80,North,355,0.0,2.0,70,0.00,,---,0.00,VWS V14.01,2013-02-25 04:57:00,
2013-02-24 20:00:00,11.4,3.2,29.80,North,355,0.0,2.0,69,0.00,,---,0.00,VWS V14.01,2013-02-25 05:00:00,
2013-02-24 20:05:00,11.5,2.7,29.80,North,355,0.0,0.0,67,0.00,,---,0.00,VWS V14.01,2013-02-25 05:05:00,
2013-02-24 20:10:00,11.4,2.6,29.80,North,355,0.0,1.0,67,0.00,,---,0.00,VWS V14.01,2013-02-25 05:10:00,
2013-02-24 20:15:00,11.3,2.5,29.80,North,355,0.0,1.0,67,0.00,,---,0.00,VWS V14.01,2013-02-25 05:15:00,
2013-02-24 20:20:00,11.4,3.2,29.81,North,355,0.0,1.0,69,0.00,,---,0.00,VWS V14.01,2013-02-25 05:20:00,
2013-02-24 20:25:00,11.4,2.6,29.80,North,355,1.0,1.0,67,0.00,,---,0.00,VWS V14.01,2013-02-25 05:25:00,
2013-02-24 20:30:00,11.3,2.5,29.81,North,355,0.0,1.0,67,0.00,,---,0.00,VWS V14.01,2013-02-25 05:30:00,
2013-02-24 20:35:00,11.3,2.8,29.81,North,355,0.0,1.0,68,0.00,,---,0.00,VWS V14.01,2013-02-25 05:35:00,
2013-02-24 20:40:00,11.2,2.7,29.81,North,355,0.0,1.0,68,0.00,,---,0.00,VWS V14.01,2013-02-25 05:40:00,
2013-02-24 20:45:00,10.8,2.6,29.81,North,355,0.0,2.0,69,0.00,,---,0.00,VWS V14.01,2013-02-25 05:45:00,
2013-02-24 20:50:00,9.8,2.0,29.81,North,355,1.0,2.0,70,0.00,,---,0.00,VWS V14.01,2013-02-25 05:50:00,
2013-02-24 20:55:00,8.8,1.6,29.81,North,355,2.0,2.0,72,0.00,,---,0.00,VWS V14.01,2013-02-25 05:55:00,
2013-02-24 21:00:00,8.1,1.2,29.81,NNE,15,1.0,2.0,73,0.00,,---,0.00,VWS V14.01,2013-02-25 06:00:00,
2013-02-24 21:05:00,8.1,1.5,29.81,NNE,15,1.0,2.0,74,0.00,,---,0.00,VWS V14.01,2013-02-25 06:05:00,
2013-02-24 21:10:00,8.5,2.2,29.81,NNE,15,1.0,2.0,75,0.00,,---,0.00,VWS V14.01,2013-02-25 06:10:00,
2013-02-24 21:15:00,8.8,2.2,29.81,NNE,15,0.0,2.0,74,0.00,,---,0.00,VWS V14.01,2013-02-25 06:15:00,
2013-02-24 21:20:00,8.8,1.6,29.82,NNE,15,0.0,2.0,72,0.00,,---,0.00,VWS V14.01,2013-02-25 06:20:00,
2013-02-24 21:24:00,9.0,2.4,29.81,NNE,15,1.0,2.0,74,0.00,,---,0.00,VWS V14.01,2013-02-25 06:24:00,
2013-02-24 21:29:00,9.2,2.0,29.82,NNE,15,0.0,2.0,72,0.00,,---,0.00,VWS V14.01,2013-02-25 06:29:00,
2013-02-24 21:34:00,9.3,1.8,29.82,NNE,15,0.0,1.0,71,0.00,,---,0.00,VWS V14.01,2013-02-25 06:34:00,
2013-02-24 21:39:00,9.5,2.6,29.82,NNE,15,0.0,1.0,73,0.00,,---,0.00,VWS V14.01,2013-02-25 06:39:00,
2013-02-24 21:44:00,9.8,2.6,29.81,NNE,15,1.0,2.0,72,0.00,,---,0.00,VWS V14.01,2013-02-25 06:44:00,
2013-02-24 21:49:00,9.9,2.1,29.81,NNE,15,1.0,2.0,70,0.00,,---,0.00,VWS V14.01,2013-02-25 06:49:00,
2013-02-24 21:54:00,10.2,2.7,29.81,NNE,15,1.0,2.0,71,0.00,,---,0.00,VWS V14.01,2013-02-25 06:54:00,
2013-02-24 21:59:00,10.7,3.2,29.81,NNE,20,0.0,2.0,71,0.00,,---,0.00,VWS V14.01,2013-02-25 06:59:00,
2013-02-24 22:04:00,11.1,3.8,29.81,NNE,20,0.0,2.0,72,0.00,,---,0.00,VWS V14.01,2013-02-25 07:04:00,
2013-02-24 22:09:00,11.5,3.9,29.82,NNE,20,0.0,2.0,71,0.00,,---,0.00,VWS V14.01,2013-02-25 07:09:00,
2013-02-24 22:14:00,11.6,3.7,29.82,NNE,20,0.0,2.0,70,0.00,,---,0.00,VWS V14.01,2013-02-25 07:14:00,
2013-02-24 22:19:00,11.5,3.6,29.82,NNE,20,0.0,2.0,70,0.00,,---,0.00,VWS V14.01,2013-02-25 07:19:00,
2013-02-24 22:24:00,11.4,3.5,29.82,NNE,20,0.0,2.0,70,0.00,,---,0.00,VWS V14.01,2013-02-25 07:24:00,
2013-02-24 22:29:00,11.2,3.3,29.82,NNE,20,0.0,2.0,70,0.00,,---,0.00,VWS V14.01,2013-02-25 07:29:00,
2013-02-24 22:34:00,11.2,3.0,29.83,NNE,20,0.0,0.0,69,0.00,,---,0.00,VWS V14.01,2013-02-25 07:34:00,
2013-02-24 22:39:00,11.3,3.4,29.83,NNE,20,0.0,0.0,70,0.00,,---,0.00,VWS V14.01,2013-02-25 07:39:00,
2013-02-24 22:44:00,11.2,3.7,29.83,NNE,20,0.0,0.0,71,0.00,,---,0.00,VWS V14.01,2013-02-25 07:44:00,
2013-02-24 22:49:00,11.2,3.3,29.83,NNE,20,0.0,1.0,70,0.00,,---,0.00,VWS V14.01,2013-02-25 07:49:00,
2013-02-24 22:54:00,11.5,3.9,29.83,NNE,20,0.0,1.0,71,0.00,,---,0.00,VWS V14.01,2013-02-25 07:54:00,
2013-02-24 22:59:00,11.8,4.2,29.83,NNE,20,0.0,1.0,71,0.00,,---,0.00,VWS V14.01,2013-02-25 07:59:00,
2013-02-24 23:04:00,11.9,4.0,29.83,NNE,20,0.0,0.0,70,0.00,,---,0.00,VWS V14.01,2013-02-25 08:04:00,
2013-02-24 23:09:00,11.9,4.3,29.83,NNE,20,1.0,1.0,71,0.00,,---,0.00,VWS V14.01,2013-02-25 08:09:00,
2013-02-24 23:14:00,12.2,5.5,29.83,NNE,20,0.0,1.0,74,0.00,,---,0.00,VWS V14.01,2013-02-25 08:14:00,
2013-02-24 23:19:00,12.6,6.5,29.83,NNE,20,0.0,1.0,76,0.00,,---,0.00,VWS V14.01,2013-02-25 08:19:00,
2013-02-24 23:24:00,13.0,6.6,29.83,NNE,20,0.0,1.0,75,0.00,,---,0.00,VWS V14.01,2013-02-25 08:24:00,
2013-02-24 23:29:00,13.3,6.9,29.83,NNE,20,0.0,1.0,75,0.00,,---,0.00,VWS V14.01,2013-02-25 08:29:00,
2013-02-24 23:34:00,13.4,7.0,29.83,NNE,20,0.0,0.0,75,0.00,,---,0.00,VWS V14.01,2013-02-25 08:34:00,
2013-02-24 23:39:00,13.5,6.8,29.83,NNE,20,0.0,0.0,74,0.00,,---,0.00,VWS V14.01,2013-02-25 08:39:00,
2013-02-24 23:44:00,13.7,7.0,29.83,NNE,20,0.0,0.0,74,0.00,,---,0.00,VWS V14.01,2013-02-25 08:44:00,
2013-02-24 23:49:00,13.7,7.0,29.83,NNE,20,0.0,0.0,74,0.00,,---,0.00,VWS V14.01,2013-02-25 08:49:00,
2013-02-24 23:54:00,13.7,6.7,29.84,NNE,20,0.0,0.0,73,0.00,,---,0.00,VWS V14.01,2013-02-25 08:54:00,
2013-02-24 23:59:00,13.3,6.6,29.84,NNE,20,0.0,0.0,74,0.00,,---,0.00,VWS V14.01,2013-02-25 08:59:00,